Time;durP1;ratioP1;P1;durP2;ratioP2;P2;SDS_P1;SDS_P2;PMS_P1;PMS_P2;Temp;Humidity;BMP_temperature;BMP_pressure;BME280_temperature;BME280_humidity;BME280_pressure;Samples;Min_cycle;Max_cycle;Signal;HPM_P1;HPM_P2
2022/09/11 00:01:32;;;;;;;9.55;8.55;;;;;;;15.73;100.00;100394.81;4956277;29;20567;-74
2022/09/11 00:03:59;;;;;;;9.43;8.27;;;;;;;15.77;100.00;100394.50;4957515;29;20200;-74
2022/09/11 00:06:26;;;;;;;10.52;8.20;;;;;;;15.64;100.00;100391.69;4953018;29;20220;-75
2022/09/11 00:08:59;;;;;;;9.95;7.55;;;;;;;15.59;100.00;100388.41;4954249;29;20207;-76
2022/09/11 00:11:27;;;;;;;10.18;9.00;;;;;;;15.57;100.00;100387.63;4958781;29;20203;-76
2022/09/11 00:13:55;;;;;;;10.43;8.95;;;;;;;15.48;100.00;100393.69;4961401;29;20619;-76
2022/09/11 00:16:26;;;;;;;10.45;9.40;;;;;;;15.32;100.00;100384.81;4958371;29;20244;-74
2022/09/11 00:18:54;;;;;;;11.95;9.65;;;;;;;15.31;100.00;100394.81;4953597;29;20205;-74
2022/09/11 00:21:21;;;;;;;13.73;10.93;;;;;;;15.32;100.00;100384.81;4950779;29;20222;-73
2022/09/11 00:23:48;;;;;;;13.50;11.52;;;;;;;15.33;100.00;100382.00;4963798;29;20216;-74
2022/09/11 00:26:16;;;;;;;14.90;10.82;;;;;;;15.28;100.00;100380.56;4946825;29;20255;-76
2022/09/11 00:28:43;;;;;;;14.82;12.23;;;;;;;15.25;100.00;100386.19;4959584;29;20208;-72
2022/09/11 00:31:13;;;;;;;13.32;12.00;;;;;;;15.22;100.00;100389.97;4949336;29;20207;-72
2022/09/11 00:33:40;;;;;;;18.77;13.35;;;;;;;15.26;100.00;100386.06;4956495;29;20200;-73
2022/09/11 00:36:11;;;;;;;20.00;13.10;;;;;;;15.32;100.00;100385.69;4958044;29;20650;-75
2022/09/11 00:38:39;;;;;;;18.85;15.18;;;;;;;15.35;100.00;100393.63;4952861;29;20252;-75
2022/09/11 00:41:08;;;;;;;17.10;15.27;;;;;;;15.42;100.00;100389.53;4957707;29;20221;-73
2022/09/11 00:43:55;;;;;;;17.88;15.98;;;;;;;15.51;100.00;100395.31;4952815;29;20223;-73
2022/09/11 00:46:25;;;;;;;23.33;17.00;;;;;;;15.56;100.00;100391.34;4956817;28;20291;-76
2022/09/11 00:48:53;;;;;;;19.75;17.65;;;;;;;15.66;100.00;100399.72;4959251;29;20224;-75
2022/09/11 00:51:25;;;;;;;26.73;18.55;;;;;;;15.81;100.00;100408.75;4959305;29;20201;-74
2022/09/11 00:53:54;;;;;;;20.42;18.17;;;;;;;15.84;100.00;100405.81;4959318;29;20251;-74
2022/09/11 00:56:22;;;;;;;21.58;19.00;;;;;;;15.92;100.00;100421.56;4954770;29;20725;-72
2022/09/11 00:58:52;;;;;;;22.63;18.25;;;;;;;15.93;100.00;100426.91;4948236;29;20204;-75
2022/09/11 01:01:18;;;;;;;22.42;19.30;;;;;;;15.99;100.00;100434.66;4957729;29;20240;-74
2022/09/11 01:03:46;;;;;;;22.60;19.05;;;;;;;16.02;100.00;100433.56;4958469;29;20728;-74
2022/09/11 01:06:14;;;;;;;24.30;19.10;;;;;;;16.02;100.00;100447.16;4953473;29;20222;-74
2022/09/11 01:08:40;;;;;;;23.58;19.67;;;;;;;15.95;100.00;100448.56;4957808;29;20212;-75
2022/09/11 01:11:20;;;;;;;21.95;18.55;;;;;;;15.94;100.00;100453.13;4950193;29;20201;-74
2022/09/11 01:13:54;;;;;;;23.50;20.60;;;;;;;15.97;100.00;100458.34;4948855;29;20695;-73
2022/09/11 01:16:29;;;;;;;22.80;20.27;;;;;;;15.98;100.00;100460.06;4954645;29;20216;-74
2022/09/11 01:19:05;;;;;;;22.75;20.15;;;;;;;15.97;100.00;100461.06;4955645;29;20196;-75
2022/09/11 01:22:05;;;;;;;25.10;20.92;;;;;;;16.03;100.00;100460.66;4958526;29;20212;-74
2022/09/11 01:24:55;;;;;;;24.40;20.67;;;;;;;16.03;100.00;100466.09;4862929;29;20215;-74
2022/09/11 01:27:49;;;;;;;24.40;19.92;;;;;;;16.05;100.00;100469.56;4858832;29;20235;-75
2022/09/11 01:30:18;;;;;;;22.65;19.55;;;;;;;16.05;100.00;100475.00;4848449;29;20302;-74
2022/09/11 01:32:59;;;;;;;23.05;20.65;;;;;;;16.04;100.00;100470.53;4855752;29;20207;-72
2022/09/11 01:35:35;;;;;;;23.42;19.92;;;;;;;16.05;100.00;100474.09;4859786;29;20782;-74
2022/09/11 01:38:07;;;;;;;25.63;21.05;;;;;;;15.97;100.00;100474.63;4857825;29;20666;-74
2022/09/11 01:40:39;;;;;;;26.30;21.45;;;;;;;15.90;100.00;100467.88;4862037;29;20232;-74
2022/09/11 01:43:14;;;;;;;25.02;21.20;;;;;;;15.86;100.00;100465.47;4869097;29;20208;-73
2022/09/11 01:45:44;;;;;;;25.40;20.23;;;;;;;15.82;100.00;100465.66;4863659;29;20227;-75
2022/09/11 01:48:15;;;;;;;25.00;20.05;;;;;;;15.76;100.00;100467.91;4857253;29;20204;-75
2022/09/11 01:50:46;;;;;;;29.65;20.60;;;;;;;15.74;100.00;100473.44;4857889;29;20212;-73
2022/09/11 01:53:16;;;;;;;28.20;21.73;;;;;;;15.74;100.00;100462.59;4859717;29;20608;-73
2022/09/11 01:55:45;;;;;;;25.65;21.35;;;;;;;15.72;100.00;100466.38;4860886;29;20230;-72
2022/09/11 01:58:19;;;;;;;28.42;21.95;;;;;;;15.67;100.00;100465.75;4860117;29;20200;-74
2022/09/11 02:00:51;;;;;;;26.00;21.10;;;;;;;15.73;100.00;100471.69;4875941;29;20288;-74
2022/09/11 02:03:22;;;;;;;26.30;22.08;;;;;;;15.60;100.00;100468.88;4951754;29;20193;-73
2022/09/11 02:05:55;;;;;;;23.90;19.27;;;;;;;15.59;100.00;100468.97;4955440;29;20228;-74
2022/09/11 02:08:28;;;;;;;23.95;20.27;;;;;;;15.64;100.00;100462.25;4954461;29;20583;-74
2022/09/11 02:11:02;;;;;;;26.45;21.13;;;;;;;15.55;100.00;100462.00;4957135;29;20197;-74
2022/09/11 02:13:35;;;;;;;24.50;20.08;;;;;;;15.40;100.00;100463.88;4961357;29;20196;-74
2022/09/11 02:16:07;;;;;;;28.23;20.77;;;;;;;15.32;100.00;100471.63;4958302;29;20318;-73
2022/09/11 02:18:41;;;;;;;23.75;19.88;;;;;;;15.23;100.00;100478.53;4958465;29;20282;-75
2022/09/11 02:21:08;;;;;;;25.40;20.17;;;;;;;15.21;100.00;100473.19;4952320;29;20219;-75
2022/09/11 02:23:34;;;;;;;25.77;20.80;;;;;;;15.15;100.00;100481.72;4959939;29;20208;-74
2022/09/11 02:26:02;;;;;;;27.65;21.77;;;;;;;15.09;100.00;100475.81;4959210;29;20327;-74
2022/09/11 02:28:30;;;;;;;36.25;23.65;;;;;;;15.08;100.00;100474.94;4959536;29;20211;-75
2022/09/11 02:30:56;;;;;;;30.77;21.77;;;;;;;15.08;100.00;100484.91;4953098;29;20201;-72
2022/09/11 02:33:29;;;;;;;29.23;21.55;;;;;;;14.98;100.00;100479.19;4961117;29;20214;-74
2022/09/11 02:36:08;;;;;;;32.33;22.95;;;;;;;15.00;100.00;100480.84;4961459;29;20228;-74
2022/09/11 02:38:45;;;;;;;32.58;23.02;;;;;;;15.03;100.00;100482.47;4958226;29;20941;-74
2022/09/11 02:41:18;;;;;;;30.60;22.83;;;;;;;15.07;100.00;100481.31;4962899;29;20604;-73
2022/09/11 02:43:58;;;;;;;32.97;24.48;;;;;;;15.12;100.00;100490.03;4961978;29;20673;-74
2022/09/11 22:11:02;;;;;;;19.75;14.43;;;;;;;14.87;100.00;100617.28;5610674;23;20328;-75
2022/09/11 22:13:28;;;;;;;20.00;15.43;;;;;;;14.86;100.00;100626.41;4943870;29;20235;-76
2022/09/11 22:15:55;;;;;;;17.45;13.35;;;;;;;14.84;100.00;100622.91;4924935;29;20212;-75
2022/09/11 22:18:21;;;;;;;21.15;14.60;;;;;;;14.78;100.00;100624.97;4919231;29;20197;-76
2022/09/11 22:20:48;;;;;;;21.48;14.40;;;;;;;14.76;100.00;100620.63;4935244;29;20228;-76
2022/09/11 22:23:16;;;;;;;22.50;15.98;;;;;;;14.76;100.00;100617.91;4944452;29;20203;-75
2022/09/11 22:25:43;;;;;;;19.80;15.05;;;;;;;14.77;100.00;100617.81;4936115;29;20209;-74
2022/09/11 22:28:11;;;;;;;22.05;14.90;;;;;;;14.74;100.00;100626.16;4943004;29;20648;-75
2022/09/11 22:30:41;;;;;;;20.67;15.35;;;;;;;14.68;100.00;100617.50;4934371;29;20282;-76
2022/09/11 22:33:07;;;;;;;20.75;14.20;;;;;;;14.69;100.00;100614.69;4943690;29;20204;-75
2022/09/11 22:35:34;;;;;;;23.52;16.17;;;;;;;14.68;100.00;100618.38;4956018;29;20231;-76
2022/09/11 22:38:01;;;;;;;21.52;17.20;;;;;;;14.76;100.00;100621.50;4934677;29;20208;-76
2022/09/11 22:40:27;;;;;;;25.52;16.35;;;;;;;14.76;100.00;100623.34;4933894;29;20225;-76
2022/09/11 22:42:54;;;;;;;24.77;16.40;;;;;;;14.74;100.00;100618.03;4942231;29;20230;-75
2022/09/11 22:45:22;;;;;;;26.10;16.10;;;;;;;14.74;100.00;100617.13;4945338;29;20211;-75
2022/09/11 22:47:48;;;;;;;23.55;17.67;;;;;;;14.71;100.00;100623.59;4944834;29;20204;-75
2022/09/11 22:50:15;;;;;;;23.27;15.77;;;;;;;14.68;100.00;100633.78;4940330;29;20202;-76
2022/09/11 22:52:41;;;;;;;20.45;14.40;;;;;;;14.68;100.00;100634.66;4947305;29;20222;-74
2022/09/11 22:55:09;;;;;;;24.77;15.02;;;;;;;14.65;100.00;100636.66;4944478;29;20195;-73
2022/09/11 22:57:36;;;;;;;19.65;16.05;;;;;;;14.67;100.00;100637.44;4935409;29;20291;-74
2022/09/11 23:00:06;;;;;;;19.08;13.88;;;;;;;14.67;100.00;100638.31;4940075;29;20215;-74
2022/09/11 23:02:34;;;;;;;19.88;13.35;;;;;;;14.68;100.00;100633.78;4945983;29;20223;-74
2022/09/11 23:07:48;;;;;;;22.58;14.77;;;;;;;14.60;100.00;100632.38;4876818;29;20199;-75
2022/09/11 23:10:15;;;;;;;22.08;16.17;;;;;;;14.57;100.00;100629.84;4878240;29;20285;-75
2022/09/11 23:12:42;;;;;;;21.95;13.93;;;;;;;14.55;100.00;100641.75;4871294;29;20718;-74
2022/09/11 23:15:09;;;;;;;21.75;13.98;;;;;;;14.49;100.00;100637.50;4877657;29;20206;-75
2022/09/11 23:17:37;;;;;;;20.67;15.55;;;;;;;14.34;100.00;100641.13;4875329;29;20214;-75
2022/09/11 23:20:05;;;;;;;23.42;16.00;;;;;;;14.33;100.00;100632.09;4879598;29;20206;-75
2022/09/11 23:22:31;;;;;;;28.95;16.50;;;;;;;14.38;100.00;100637.25;4875940;29;20274;-75
2022/09/11 23:24:58;;;;;;;23.60;16.25;;;;;;;14.45;100.00;100641.38;4877607;29;20756;-76
2022/09/11 23:27:24;;;;;;;22.58;15.93;;;;;;;14.41;100.00;100633.50;4876778;29;20213;-75
2022/09/11 23:29:51;;;;;;;23.67;17.05;;;;;;;14.27;100.00;100635.19;4873296;29;20219;-76
2022/09/11 23:32:17;;;;;;;22.75;15.00;;;;;;;14.22;100.00;100634.53;4878360;29;20305;-76
2022/09/11 23:34:45;;;;;;;21.30;15.50;;;;;;;14.16;100.00;100629.50;4879453;29;20209;-75
2022/09/11 23:37:11;;;;;;;23.27;16.13;;;;;;;14.20;100.00;100633.78;4878104;29;20205;-75
2022/09/11 23:39:38;;;;;;;24.08;15.95;;;;;;;14.22;100.00;100626.41;4877438;29;20653;-75
2022/09/11 23:42:05;;;;;;;22.33;15.95;;;;;;;14.20;100.00;100620.25;4879964;29;20238;-75
2022/09/11 23:44:31;;;;;;;23.52;15.80;;;;;;;14.24;100.00;100629.03;4893947;29;20212;-76
2022/09/11 23:46:59;;;;;;;28.98;15.75;;;;;;;14.19;100.00;100624.75;4940817;29;20215;-75
2022/09/11 23:49:25;;;;;;;25.77;16.52;;;;;;;14.14;100.00;100621.44;4946729;29;20223;-76
2022/09/11 23:51:53;;;;;;;23.73;17.50;;;;;;;14.21;100.00;100621.09;4929134;29;20222;-75
2022/09/11 23:54:20;;;;;;;24.73;16.60;;;;;;;14.18;100.00;100619.44;4935055;29;20212;-76
2022/09/11 23:56:47;;;;;;;23.38;17.13;;;;;;;14.25;100.00;100614.56;4943503;29;20639;-76
2022/09/11 23:59:14;;;;;;;25.52;17.50;;;;;;;14.31;100.00;100617.78;4941236;29;20213;-75
